Linville, VA (22834)

2:00 AM EST on February 09, 2016 (GMT -0500)
Singers Glen FD | | Change Station
CLOSE
Current Station
Personal Weather Station
Location: Harrisonburg, VA
Elevation: 1621 ft
Nearby Weather Stations

Elev 1621 ft 38.55 °N, 78.92 °W | Updated 6 seconds ago

Overcast
Overcast
30.9 °F
Feels Like 31 °F
N
0.0
Wind Variable Wind from NNE
Gusts 0.0 mph

Today
High -- | Low -- °F
--% Chance of Precip.
Yesterday
High -- | Low -- °F
Precip. -- in
Pressure 29.57 in
Visibility 5.0 miles
Clouds Scattered Clouds 3000 ft
Overcast 3800 ft
Windchill 31 °F
Dew Point 30 °F
Humidity 96%
Rainfall 0.00 in
Snow Depth Not available.
7:13 AM 5:46 PM
New Moon, 1% visible
METAR KSHD 090635Z AUTO 36003KT 5SM BR SCT030 OVC038 02/01 A2957 RMK AO2 T00170009
Pressure 29.57 in
Visibility 5.0 miles
Clouds Scattered Clouds 3000 ft
Overcast 3800 ft
Windchill 31 °F
Dew Point 30 °F
Humidity 96%
Rainfall 0.00 in
Snow Depth Not available.
7:13 AM 5:46 PM
New Moon, 1% visible
METAR KSHD 090635Z AUTO 36003KT 5SM BR SCT030 OVC038 02/01 A2957 RMK AO2 T00170009

10-Day Weather Forecast

Almanac

Astronomy

Feb. 09, 2016 Rise Set
Actual Time
Civil Twilight
Nautical Twilight
Astronomical Twilight
Moon
Length of Visible Light
Length of Day
Tomorrow will be .
, % of the Moon is Illuminated

Today's Extremes

State Highs State Lows

Community

WunderPhotos

Upload Photos

1,891,571 photos uploaded!

WunderBlog® & News

Nearby

Air Quality

  Air Quality AQ Index Pollutant
Not available.

Snow Depth

Station Depth Elevation

Earthquake Activity

City Distance Mag. Time & Date
Minimum magnitude displayed is 2.5.

Coastal Water Temperatures

Place Temperature

Stations

Nearby Weather Stations

Station Location Temp. Windchill Dew Point Humidity Wind Precip. Elev Updated Type
                   

Watches & Warnings

There are currently no watches in effect.